sensor_id;sensor_type;location;lat;lon;timestamp;pressure;altitude;pressure_sealevel;temperature;humidity
9774;BME280;4926;42.670;23.316;2024-02-16T00:00:39;95075.44;;;4.01;60.36
9774;BME280;4926;42.670;23.316;2024-02-16T00:03:09;95067.78;;;3.99;60.38
9774;BME280;4926;42.670;23.316;2024-02-16T00:05:35;95071.88;;;3.98;60.77
9774;BME280;4926;42.670;23.316;2024-02-16T00:08:02;95067.69;;;3.97;59.31
9774;BME280;4926;42.670;23.316;2024-02-16T00:10:28;95075.16;;;3.95;60.58
9774;BME280;4926;42.670;23.316;2024-02-16T00:12:54;95075.25;;;3.97;60.12
9774;BME280;4926;42.670;23.316;2024-02-16T00:15:19;95076.56;;;3.96;58.94
9774;BME280;4926;42.670;23.316;2024-02-16T00:17:45;95072.41;;;3.95;59.40
9774;BME280;4926;42.670;23.316;2024-02-16T00:20:10;95074.19;;;3.88;59.36
9774;BME280;4926;42.670;23.316;2024-02-16T00:22:38;95071.31;;;3.86;59.49
9774;BME280;4926;42.670;23.316;2024-02-16T00:25:04;95070.63;;;3.85;60.30
9774;BME280;4926;42.670;23.316;2024-02-16T00:27:29;95071.31;;;3.86;59.07
9774;BME280;4926;42.670;23.316;2024-02-16T00:29:55;95074.59;;;3.82;60.13
9774;BME280;4926;42.670;23.316;2024-02-16T00:32:20;95077.09;;;3.76;59.51
9774;BME280;4926;42.670;23.316;2024-02-16T00:34:54;95071.28;;;3.70;60.41
9774;BME280;4926;42.670;23.316;2024-02-16T00:37:19;95080.81;;;3.67;59.73
9774;BME280;4926;42.670;23.316;2024-02-16T00:39:45;95079.72;;;3.59;60.84
9774;BME280;4926;42.670;23.316;2024-02-16T00:42:10;95067.69;;;3.52;60.57
9774;BME280;4926;42.670;23.316;2024-02-16T00:44:39;95063.22;;;3.45;60.53
9774;BME280;4926;42.670;23.316;2024-02-16T00:47:04;95081.56;;;3.54;60.38
9774;BME280;4926;42.670;23.316;2024-02-16T00:49:35;95070.16;;;3.46;60.20
9774;BME280;4926;42.670;23.316;2024-02-16T00:52:01;95078.16;;;3.40;61.20
9774;BME280;4926;42.670;23.316;2024-02-16T00:54:27;95081.53;;;3.38;61.13
9774;BME280;4926;42.670;23.316;2024-02-16T00:56:55;95076.72;;;3.39;60.79
9774;BME280;4926;42.670;23.316;2024-02-16T00:59:26;95078.97;;;3.42;61.49
9774;BME280;4926;42.670;23.316;2024-02-16T01:01:51;95074.88;;;3.43;61.83
9774;BME280;4926;42.670;23.316;2024-02-16T01:04:17;95084.16;;;3.50;60.79
9774;BME280;4926;42.670;23.316;2024-02-16T01:06:42;95077.47;;;3.55;61.21
9774;BME280;4926;42.670;23.316;2024-02-16T01:09:08;95073.41;;;3.56;61.23
9774;BME280;4926;42.670;23.316;2024-02-16T01:11:33;95073.50;;;3.58;62.05
9774;BME280;4926;42.670;23.316;2024-02-16T01:13:59;95076.34;;;3.60;60.92
9774;BME280;4926;42.670;23.316;2024-02-16T01:16:25;95069.66;;;3.65;61.35
9774;BME280;4926;42.670;23.316;2024-02-16T01:18:50;95072.00;;;3.71;60.71
9774;BME280;4926;42.670;23.316;2024-02-16T01:21:16;95074.25;;;3.74;61.68
9774;BME280;4926;42.670;23.316;2024-02-16T01:23:44;95063.72;;;3.71;61.15
9774;BME280;4926;42.670;23.316;2024-02-16T01:26:10;95071.50;;;3.74;60.47
9774;BME280;4926;42.670;23.316;2024-02-16T01:28:35;95066.78;;;3.77;59.71
9774;BME280;4926;42.670;23.316;2024-02-16T01:31:01;95069.53;;;3.77;60.42
9774;BME280;4926;42.670;23.316;2024-02-16T01:33:27;95055.66;;;3.75;60.83
9774;BME280;4926;42.670;23.316;2024-02-16T01:35:54;95062.16;;;3.81;60.49
9774;BME280;4926;42.670;23.316;2024-02-16T01:38:19;95051.91;;;3.84;59.98
9774;BME280;4926;42.670;23.316;2024-02-16T01:40:48;95058.88;;;3.85;59.58
9774;BME280;4926;42.670;23.316;2024-02-16T01:43:13;95056.81;;;3.85;58.89
9774;BME280;4926;42.670;23.316;2024-02-16T01:45:49;95055.59;;;3.88;59.62
9774;BME280;4926;42.670;23.316;2024-02-16T01:48:15;95051.31;;;3.85;59.54
9774;BME280;4926;42.670;23.316;2024-02-16T01:50:45;95052.13;;;3.88;58.48
9774;BME280;4926;42.670;23.316;2024-02-16T01:53:12;95037.50;;;3.85;59.48
9774;BME280;4926;42.670;23.316;2024-02-16T01:55:39;95044.75;;;3.92;58.89
9774;BME280;4926;42.670;23.316;2024-02-16T01:58:05;95048.13;;;3.91;58.25
9774;BME280;4926;42.670;23.316;2024-02-16T02:00:30;95052.72;;;3.86;59.52
9774;BME280;4926;42.670;23.316;2024-02-16T02:02:57;95051.22;;;3.83;58.86
9774;BME280;4926;42.670;23.316;2024-02-16T02:05:23;95046.94;;;3.80;58.48
9774;BME280;4926;42.670;23.316;2024-02-16T02:07:49;95054.84;;;3.72;59.11
9774;BME280;4926;42.670;23.316;2024-02-16T02:10:14;95052.28;;;3.76;58.75
9774;BME280;4926;42.670;23.316;2024-02-16T02:12:40;95047.91;;;3.71;58.82
9774;BME280;4926;42.670;23.316;2024-02-16T02:15:08;95053.50;;;3.73;59.82
9774;BME280;4926;42.670;23.316;2024-02-16T02:17:34;95049.44;;;3.74;59.56
9774;BME280;4926;42.670;23.316;2024-02-16T02:20:00;95052.00;;;3.70;59.14
9774;BME280;4926;42.670;23.316;2024-02-16T02:22:26;95045.97;;;3.44;60.96
9774;BME280;4926;42.670;23.316;2024-02-16T02:24:52;95047.00;;;3.37;61.11
9774;BME280;4926;42.670;23.316;2024-02-16T02:27:21;95053.44;;;3.42;61.04
9774;BME280;4926;42.670;23.316;2024-02-16T02:29:47;95052.00;;;3.41;60.84
9774;BME280;4926;42.670;23.316;2024-02-16T02:32:13;95050.47;;;3.38;60.96
9774;BME280;4926;42.670;23.316;2024-02-16T02:34:39;95044.19;;;3.35;61.58
9774;BME280;4926;42.670;23.316;2024-02-16T02:37:05;95045.94;;;3.29;60.91
9774;BME280;4926;42.670;23.316;2024-02-16T02:39:34;95048.16;;;3.32;60.68
9774;BME280;4926;42.670;23.316;2024-02-16T02:41:59;95052.97;;;3.32;61.52
9774;BME280;4926;42.670;23.316;2024-02-16T02:44:30;95051.53;;;3.31;62.60
9774;BME280;4926;42.670;23.316;2024-02-16T02:46:57;95050.72;;;3.28;62.02
9774;BME280;4926;42.670;23.316;2024-02-16T02:49:22;95048.41;;;3.23;61.50
9774;BME280;4926;42.670;23.316;2024-02-16T02:51:48;95050.34;;;3.20;62.00
9774;BME280;4926;42.670;23.316;2024-02-16T02:54:13;95051.06;;;3.20;61.45
9774;BME280;4926;42.670;23.316;2024-02-16T02:56:39;95045.72;;;3.25;61.51
9774;BME280;4926;42.670;23.316;2024-02-16T02:59:04;95042.91;;;3.23;61.24
9774;BME280;4926;42.670;23.316;2024-02-16T03:01:31;95049.53;;;3.17;62.37
9774;BME280;4926;42.670;23.316;2024-02-16T03:03:56;95050.25;;;3.18;61.39
9774;BME280;4926;42.670;23.316;2024-02-16T03:06:23;95051.59;;;3.17;62.79
9774;BME280;4926;42.670;23.316;2024-02-16T03:08:48;95046.69;;;3.15;61.95
9774;BME280;4926;42.670;23.316;2024-02-16T03:11:14;95053.81;;;3.20;62.22
9774;BME280;4926;42.670;23.316;2024-02-16T03:13:39;95047.78;;;3.24;61.54
9774;BME280;4926;42.670;23.316;2024-02-16T03:16:05;95052.78;;;3.28;61.99
9774;BME280;4926;42.670;23.316;2024-02-16T03:18:33;95051.66;;;3.33;61.12
9774;BME280;4926;42.670;23.316;2024-02-16T03:20:59;95050.22;;;3.32;61.80
9774;BME280;4926;42.670;23.316;2024-02-16T03:23:26;95051.16;;;3.23;60.66
9774;BME280;4926;42.670;23.316;2024-02-16T03:25:51;95054.34;;;3.17;62.07
9774;BME280;4926;42.670;23.316;2024-02-16T03:28:17;95052.09;;;3.13;61.61
9774;BME280;4926;42.670;23.316;2024-02-16T03:30:43;95050.88;;;3.16;61.07
9774;BME280;4926;42.670;23.316;2024-02-16T03:33:10;95053.00;;;3.18;61.94
9774;BME280;4926;42.670;23.316;2024-02-16T03:35:36;95056.38;;;3.16;61.55
9774;BME280;4926;42.670;23.316;2024-02-16T03:38:03;95047.59;;;3.20;61.72
9774;BME280;4926;42.670;23.316;2024-02-16T03:40:28;95050.34;;;3.20;61.02
9774;BME280;4926;42.670;23.316;2024-02-16T03:42:54;95058.72;;;3.22;60.84
9774;BME280;4926;42.670;23.316;2024-02-16T03:45:23;95055.75;;;3.18;61.59
9774;BME280;4926;42.670;23.316;2024-02-16T03:47:49;95053.44;;;3.12;61.31
9774;BME280;4926;42.670;23.316;2024-02-16T03:50:17;95062.75;;;3.05;61.77
9774;BME280;4926;42.670;23.316;2024-02-16T03:52:43;95054.47;;;3.05;63.03
9774;BME280;4926;42.670;23.316;2024-02-16T03:55:11;95059.78;;;3.01;62.30
9774;BME280;4926;42.670;23.316;2024-02-16T03:57:37;95060.59;;;3.04;62.10
9774;BME280;4926;42.670;23.316;2024-02-16T04:00:04;95053.28;;;2.95;61.96
9774;BME280;4926;42.670;23.316;2024-02-16T04:02:33;95048.16;;;3.03;62.41
9774;BME280;4926;42.670;23.316;2024-02-16T04:04:59;95049.56;;;3.04;62.03
9774;BME280;4926;42.670;23.316;2024-02-16T04:07:24;95045.19;;;2.99;62.73
9774;BME280;4926;42.670;23.316;2024-02-16T04:09:52;95050.81;;;3.01;62.10
9774;BME280;4926;42.670;23.316;2024-02-16T04:12:18;95048.06;;;3.01;62.98
9774;BME280;4926;42.670;23.316;2024-02-16T04:14:44;95048.97;;;3.05;62.10
9774;BME280;4926;42.670;23.316;2024-02-16T04:17:09;95051.19;;;3.09;62.74
9774;BME280;4926;42.670;23.316;2024-02-16T04:19:36;95042.22;;;3.08;61.91
9774;BME280;4926;42.670;23.316;2024-02-16T04:22:02;95042.22;;;3.08;62.31
9774;BME280;4926;42.670;23.316;2024-02-16T04:24:29;95050.50;;;3.08;60.96
9774;BME280;4926;42.670;23.316;2024-02-16T04:26:54;95049.06;;;3.07;61.21
9774;BME280;4926;42.670;23.316;2024-02-16T04:29:20;95035.19;;;3.05;61.18
9774;BME280;4926;42.670;23.316;2024-02-16T04:31:45;95051.59;;;3.17;60.10
9774;BME280;4926;42.670;23.316;2024-02-16T04:34:12;95047.31;;;3.14;61.04
9774;BME280;4926;42.670;23.316;2024-02-16T04:36:37;95055.47;;;3.12;61.35
9774;BME280;4926;42.670;23.316;2024-02-16T04:39:03;95053.16;;;3.06;61.67
9774;BME280;4926;42.670;23.316;2024-02-16T04:41:29;95059.06;;;3.01;62.78
9774;BME280;4926;42.670;23.316;2024-02-16T04:44:09;95053.28;;;2.95;61.83
9774;BME280;4926;42.670;23.316;2024-02-16T04:46:35;95056.72;;;2.95;62.75
9774;BME280;4926;42.670;23.316;2024-02-16T04:49:00;95054.69;;;2.96;62.74
9774;BME280;4926;42.670;23.316;2024-02-16T04:51:26;95059.31;;;2.91;62.21
9774;BME280;4926;42.670;23.316;2024-02-16T04:53:51;95063.69;;;2.82;62.29
9774;BME280;4926;42.670;23.316;2024-02-16T04:56:17;95060.31;;;2.84;62.61
9774;BME280;4926;42.670;23.316;2024-02-16T04:58:42;95056.03;;;2.67;62.48
9774;BME280;4926;42.670;23.316;2024-02-16T05:01:08;95064.13;;;2.63;63.23
9774;BME280;4926;42.670;23.316;2024-02-16T05:03:33;95068.09;;;2.33;64.46
9774;BME280;4926;42.670;23.316;2024-02-16T05:06:02;95067.75;;;2.13;65.95
9774;BME280;4926;42.670;23.316;2024-02-16T05:08:28;95066.03;;;2.06;64.93
9774;BME280;4926;42.670;23.316;2024-02-16T05:10:54;95064.16;;;1.97;65.94
9774;BME280;4926;42.670;23.316;2024-02-16T05:13:19;95066.63;;;2.04;65.96
9774;BME280;4926;42.670;23.316;2024-02-16T05:15:45;95077.72;;;1.93;66.72
9774;BME280;4926;42.670;23.316;2024-02-16T05:18:12;95083.63;;;2.01;66.32
9774;BME280;4926;42.670;23.316;2024-02-16T05:20:38;95084.69;;;2.07;66.11
9774;BME280;4926;42.670;23.316;2024-02-16T05:23:05;95084.38;;;2.15;65.87
9774;BME280;4926;42.670;23.316;2024-02-16T05:25:36;95087.00;;;2.13;65.61
9774;BME280;4926;42.670;23.316;2024-02-16T05:28:02;95085.56;;;2.12;65.37
9774;BME280;4926;42.670;23.316;2024-02-16T05:30:27;95085.56;;;2.12;65.21
9774;BME280;4926;42.670;23.316;2024-02-16T05:32:53;95095.09;;;2.23;65.72
9774;BME280;4926;42.670;23.316;2024-02-16T05:35:19;95094.56;;;2.26;65.54
9774;BME280;4926;42.670;23.316;2024-02-16T05:37:45;95102.44;;;2.32;65.50
9774;BME280;4926;42.670;23.316;2024-02-16T05:40:14;95097.75;;;2.34;64.60
9774;BME280;4926;42.670;23.316;2024-02-16T05:42:51;95105.28;;;2.34;63.93
9774;BME280;4926;42.670;23.316;2024-02-16T05:45:20;95104.69;;;2.35;63.82
9774;BME280;4926;42.670;23.316;2024-02-16T05:47:49;95104.78;;;2.37;64.60
9774;BME280;4926;42.670;23.316;2024-02-16T05:50:15;95104.69;;;2.35;64.22
9774;BME280;4926;42.670;23.316;2024-02-16T05:52:41;95109.97;;;2.45;63.45
9774;BME280;4926;42.670;23.316;2024-02-16T05:55:08;95108.06;;;2.47;64.27
9774;BME280;4926;42.670;23.316;2024-02-16T05:57:35;95109.59;;;2.51;63.20
9774;BME280;4926;42.670;23.316;2024-02-16T06:00:05;95109.38;;;2.46;63.31
9774;BME280;4926;42.670;23.316;2024-02-16T06:02:32;95113.25;;;2.55;63.82
9774;BME280;4926;42.670;23.316;2024-02-16T06:04:58;95115.09;;;2.64;64.23
9774;BME280;4926;42.670;23.316;2024-02-16T06:07:24;95114.06;;;2.71;63.62
9774;BME280;4926;42.670;23.316;2024-02-16T06:09:49;95112.63;;;2.84;62.85
9774;BME280;4926;42.670;23.316;2024-02-16T06:12:15;95113.44;;;3.00;63.04
9774;BME280;4926;42.670;23.316;2024-02-16T06:14:41;95112.50;;;3.09;62.41
9774;BME280;4926;42.670;23.316;2024-02-16T06:17:07;95111.88;;;3.25;62.11
9774;BME280;4926;42.670;23.316;2024-02-16T06:19:34;95112.34;;;3.48;60.19
9774;BME280;4926;42.670;23.316;2024-02-16T06:22:00;95118.78;;;3.69;59.28
9774;BME280;4926;42.670;23.316;2024-02-16T06:24:25;95113.13;;;3.80;59.47
9774;BME280;4926;42.670;23.316;2024-02-16T06:26:51;95115.09;;;3.93;58.85
9774;BME280;4926;42.670;23.316;2024-02-16T06:29:17;95118.97;;;4.02;59.95
9774;BME280;4926;42.670;23.316;2024-02-16T06:31:46;95117.72;;;4.05;58.78
9774;BME280;4926;42.670;23.316;2024-02-16T06:34:18;95121.56;;;4.14;58.35
9774;BME280;4926;42.670;23.316;2024-02-16T06:36:44;95121.19;;;4.21;58.17
9774;BME280;4926;42.670;23.316;2024-02-16T06:39:11;95119.63;;;4.32;58.92
9774;BME280;4926;42.670;23.316;2024-02-16T06:41:39;95122.72;;;4.40;57.83
9774;BME280;4926;42.670;23.316;2024-02-16T06:44:05;95120.97;;;4.47;57.54
9774;BME280;4926;42.670;23.316;2024-02-16T06:46:30;95119.97;;;4.56;58.51
9774;BME280;4926;42.670;23.316;2024-02-16T06:48:57;95119.97;;;4.72;57.89
9774;BME280;4926;42.670;23.316;2024-02-16T06:51:24;95116.19;;;4.81;57.11
9774;BME280;4926;42.670;23.316;2024-02-16T06:53:51;95125.97;;;4.99;56.61
9774;BME280;4926;42.670;23.316;2024-02-16T06:56:17;95124.53;;;5.14;56.52
9774;BME280;4926;42.670;23.316;2024-02-16T06:58:44;95123.22;;;5.33;54.79
9774;BME280;4926;42.670;23.316;2024-02-16T07:01:09;95126.00;;;5.51;54.34
9774;BME280;4926;42.670;23.316;2024-02-16T07:03:35;95138.06;;;5.75;54.79
9774;BME280;4926;42.670;23.316;2024-02-16T07:06:03;95131.34;;;5.98;53.98
9774;BME280;4926;42.670;23.316;2024-02-16T07:08:31;95124.47;;;6.17;53.25
9774;BME280;4926;42.670;23.316;2024-02-16T07:10:57;95134.44;;;6.44;51.78
9774;BME280;4926;42.670;23.316;2024-02-16T07:13:22;95124.16;;;6.66;50.41
9774;BME280;4926;42.670;23.316;2024-02-16T07:15:48;95134.13;;;6.93;50.59
9774;BME280;4926;42.670;23.316;2024-02-16T07:18:14;95130.72;;;7.14;48.52
9774;BME280;4926;42.670;23.316;2024-02-16T07:20:40;95123.19;;;7.38;48.24
9774;BME280;4926;42.670;23.316;2024-02-16T07:23:06;95119.00;;;7.59;47.48
9774;BME280;4926;42.670;23.316;2024-02-16T07:25:37;95124.38;;;7.75;46.75
9774;BME280;4926;42.670;23.316;2024-02-16T07:28:03;95120.34;;;8.02;45.95
9774;BME280;4926;42.670;23.316;2024-02-16T07:30:28;95119.41;;;7.93;45.74
9774;BME280;4926;42.670;23.316;2024-02-16T07:32:55;95119.00;;;8.03;46.29
9774;BME280;4926;42.670;23.316;2024-02-16T07:35:21;95127.31;;;8.03;45.95
9774;BME280;4926;42.670;23.316;2024-02-16T07:37:50;95123.78;;;8.46;44.97
9774;BME280;4926;42.670;23.316;2024-02-16T07:40:19;95129.78;;;8.86;45.03
9774;BME280;4926;42.670;23.316;2024-02-16T07:42:45;95133.56;;;8.97;43.05
9774;BME280;4926;42.670;23.316;2024-02-16T07:45:13;95133.16;;;9.34;42.45
9774;BME280;4926;42.670;23.316;2024-02-16T07:47:41;95126.78;;;9.57;41.64
9774;BME280;4926;42.670;23.316;2024-02-16T07:50:07;95123.22;;;9.83;42.25
9774;BME280;4926;42.670;23.316;2024-02-16T07:52:33;95128.41;;;9.96;40.38
9774;BME280;4926;42.670;23.316;2024-02-16T07:54:59;95138.13;;;10.23;40.93
9774;BME280;4926;42.670;23.316;2024-02-16T07:57:24;95139.63;;;10.60;39.75
9774;BME280;4926;42.670;23.316;2024-02-16T07:59:50;95132.59;;;10.91;39.51
9774;BME280;4926;42.670;23.316;2024-02-16T08:02:16;95139.00;;;10.98;38.36
9774;BME280;4926;42.670;23.316;2024-02-16T08:04:46;95142.56;;;11.38;38.10
9774;BME280;4926;42.670;23.316;2024-02-16T08:07:12;95144.00;;;11.78;37.19
9774;BME280;4926;42.670;23.316;2024-02-16T08:09:37;95138.88;;;12.08;36.82
9774;BME280;4926;42.670;23.316;2024-02-16T08:12:03;95139.97;;;12.33;35.67
9774;BME280;4926;42.670;23.316;2024-02-16T08:14:35;95136.75;;;12.53;35.87
9774;BME280;4926;42.670;23.316;2024-02-16T08:17:00;95139.84;;;12.25;35.79
9774;BME280;4926;42.670;23.316;2024-02-16T08:19:34;95135.16;;;12.39;35.33
9774;BME280;4926;42.670;23.316;2024-02-16T08:22:01;95139.63;;;12.11;35.69
9774;BME280;4926;42.670;23.316;2024-02-16T08:24:27;95139.66;;;12.13;36.16
9774;BME280;4926;42.670;23.316;2024-02-16T08:26:52;95131.03;;;12.45;35.40
9774;BME280;4926;42.670;23.316;2024-02-16T08:29:19;95139.19;;;12.76;34.97
9774;BME280;4926;42.670;23.316;2024-02-16T08:31:48;95139.28;;;12.87;34.84
9774;BME280;4926;42.670;23.316;2024-02-16T08:34:14;95143.09;;;13.11;34.49
9774;BME280;4926;42.670;23.316;2024-02-16T08:36:44;95154.00;;;13.47;33.76
9774;BME280;4926;42.670;23.316;2024-02-16T08:39:09;95128.09;;;13.45;33.83
9774;BME280;4926;42.670;23.316;2024-02-16T08:41:37;95133.75;;;13.51;33.62
9774;BME280;4926;42.670;23.316;2024-02-16T08:44:04;95145.19;;;13.77;33.37
9774;BME280;4926;42.670;23.316;2024-02-16T08:46:32;95135.63;;;14.05;32.65
9774;BME280;4926;42.670;23.316;2024-02-16T08:48:58;95138.44;;;14.07;32.72
9774;BME280;4926;42.670;23.316;2024-02-16T08:51:24;95142.97;;;14.44;32.68
9774;BME280;4926;42.670;23.316;2024-02-16T08:53:49;95142.97;;;14.44;31.84
9774;BME280;4926;42.670;23.316;2024-02-16T08:56:15;95142.97;;;14.46;32.34
9774;BME280;4926;42.670;23.316;2024-02-16T08:58:41;95140.91;;;14.53;31.35
9774;BME280;4926;42.670;23.316;2024-02-16T09:01:06;95150.91;;;14.82;31.17
9774;BME280;4926;42.670;23.316;2024-02-16T09:03:32;95146.03;;;14.91;31.13
9774;BME280;4926;42.670;23.316;2024-02-16T09:06:03;95146.84;;;15.10;30.48
9774;BME280;4926;42.670;23.316;2024-02-16T09:08:28;95151.81;;;15.32;30.23
9774;BME280;4926;42.670;23.316;2024-02-16T09:10:59;95142.03;;;15.39;30.36
9774;BME280;4926;42.670;23.316;2024-02-16T09:13:24;95147.66;;;15.51;29.54
9774;BME280;4926;42.670;23.316;2024-02-16T09:15:50;95158.25;;;15.58;30.26
9774;BME280;4926;42.670;23.316;2024-02-16T09:18:17;95151.97;;;15.76;29.73
9774;BME280;4926;42.670;23.316;2024-02-16T09:20:42;95157.63;;;16.01;29.09
9774;BME280;4926;42.670;23.316;2024-02-16T09:23:08;95158.97;;;15.55;29.01
9774;BME280;4926;42.670;23.316;2024-02-16T09:25:34;95152.63;;;15.58;29.17
9774;BME280;4926;42.670;23.316;2024-02-16T09:28:00;95150.56;;;15.71;29.29
9774;BME280;4926;42.670;23.316;2024-02-16T09:30:26;95149.00;;;15.25;29.79
9774;BME280;4926;42.670;23.316;2024-02-16T09:32:51;95157.16;;;14.75;30.53
9774;BME280;4926;42.670;23.316;2024-02-16T09:35:17;95148.91;;;15.07;30.11
9774;BME280;4926;42.670;23.316;2024-02-16T09:37:43;95150.41;;;15.31;30.05
9774;BME280;4926;42.670;23.316;2024-02-16T09:40:12;95155.97;;;15.12;29.85
9774;BME280;4926;42.670;23.316;2024-02-16T09:42:38;95151.00;;;15.05;29.14
9774;BME280;4926;42.670;23.316;2024-02-16T09:45:07;95144.41;;;14.49;30.75
9774;BME280;4926;42.670;23.316;2024-02-16T09:47:35;95147.25;;;14.56;31.25
9774;BME280;4926;42.670;23.316;2024-02-16T09:50:01;95135.13;;;14.33;30.93
9774;BME280;4926;42.670;23.316;2024-02-16T09:52:27;95139.53;;;13.07;32.63
9774;BME280;4926;42.670;23.316;2024-02-16T09:54:53;95132.41;;;12.96;32.91
9774;BME280;4926;42.670;23.316;2024-02-16T09:57:18;95136.28;;;12.70;34.38
9774;BME280;4926;42.670;23.316;2024-02-16T09:59:44;95138.59;;;12.34;34.69
9774;BME280;4926;42.670;23.316;2024-02-16T10:02:10;95126.91;;;12.48;34.62
9774;BME280;4926;42.670;23.316;2024-02-16T10:04:36;95125.69;;;12.61;34.51
9774;BME280;4926;42.670;23.316;2024-02-16T10:07:01;95129.78;;;12.07;35.53
9774;BME280;4926;42.670;23.316;2024-02-16T10:09:28;95118.72;;;12.14;35.92
9774;BME280;4926;42.670;23.316;2024-02-16T10:12:01;95123.59;;;12.13;35.68
9774;BME280;4926;42.670;23.316;2024-02-16T10:14:27;95117.78;;;11.99;35.49
9774;BME280;4926;42.670;23.316;2024-02-16T10:17:04;95110.28;;;12.12;35.75
9774;BME280;4926;42.670;23.316;2024-02-16T10:19:30;95109.56;;;12.11;36.31
9774;BME280;4926;42.670;23.316;2024-02-16T10:22:11;95110.84;;;12.02;35.74
9774;BME280;4926;42.670;23.316;2024-02-16T10:24:37;95102.03;;;12.22;36.07
9774;BME280;4926;42.670;23.316;2024-02-16T10:27:14;95099.91;;;12.18;36.26
9774;BME280;4926;42.670;23.316;2024-02-16T10:29:48;95093.72;;;12.26;36.37
9774;BME280;4926;42.670;23.316;2024-02-16T10:32:16;95095.59;;;12.61;35.47
9774;BME280;4926;42.670;23.316;2024-02-16T10:34:46;95097.28;;;12.85;35.17
9774;BME280;4926;42.670;23.316;2024-02-16T10:37:12;95088.09;;;12.76;35.25
9774;BME280;4926;42.670;23.316;2024-02-16T10:39:40;95094.06;;;13.08;34.66
9774;BME280;4926;42.670;23.316;2024-02-16T10:42:06;95096.63;;;13.53;33.62
9774;BME280;4926;42.670;23.316;2024-02-16T10:44:33;95084.41;;;13.98;32.35
9774;BME280;4926;42.670;23.316;2024-02-16T10:47:03;95077.03;;;13.53;32.62
9774;BME280;4926;42.670;23.316;2024-02-16T10:49:32;95084.84;;;13.66;32.87
9774;BME280;4926;42.670;23.316;2024-02-16T10:51:58;95068.06;;;13.68;32.78
9774;BME280;4926;42.670;23.316;2024-02-16T10:54:30;95075.84;;;13.80;33.12
9774;BME280;4926;42.670;23.316;2024-02-16T10:56:57;95073.72;;;13.72;32.67
9774;BME280;4926;42.670;23.316;2024-02-16T10:59:23;95073.50;;;12.86;34.77
9774;BME280;4926;42.670;23.316;2024-02-16T11:02:01;95073.56;;;12.33;35.59
9774;BME280;4926;42.670;23.316;2024-02-16T11:04:36;95070.34;;;12.03;36.55
9774;BME280;4926;42.670;23.316;2024-02-16T11:07:11;95068.28;;;11.61;37.28
9774;BME280;4926;42.670;23.316;2024-02-16T11:09:39;95073.34;;;11.31;38.78
9774;BME280;4926;42.670;23.316;2024-02-16T11:12:06;95075.88;;;11.17;38.89
9774;BME280;4926;42.670;23.316;2024-02-16T11:14:38;95062.16;;;10.91;39.09
9774;BME280;4926;42.670;23.316;2024-02-16T11:17:11;95059.47;;;10.61;40.65
9774;BME280;4926;42.670;23.316;2024-02-16T11:19:41;95060.56;;;10.14;40.83
9774;BME280;4926;42.670;23.316;2024-02-16T11:22:06;95058.91;;;10.03;41.43
9774;BME280;4926;42.670;23.316;2024-02-16T11:24:43;95062.03;;;9.87;42.01
9774;BME280;4926;42.670;23.316;2024-02-16T11:27:10;95061.13;;;9.76;41.91
9774;BME280;4926;42.670;23.316;2024-02-16T11:29:36;95052.06;;;9.76;42.30
9774;BME280;4926;42.670;23.316;2024-02-16T11:32:05;95047.34;;;9.82;42.16
9774;BME280;4926;42.670;23.316;2024-02-16T11:34:31;95052.16;;;9.80;41.13
9774;BME280;4926;42.670;23.316;2024-02-16T11:37:00;95048.78;;;9.55;41.65
9774;BME280;4926;42.670;23.316;2024-02-16T11:39:26;95042.38;;;9.49;43.40
9774;BME280;4926;42.670;23.316;2024-02-16T11:42:05;95036.59;;;9.41;42.94
9774;BME280;4926;42.670;23.316;2024-02-16T11:44:34;95043.09;;;9.49;43.70
9774;BME280;4926;42.670;23.316;2024-02-16T11:47:02;95042.66;;;9.61;43.44
9774;BME280;4926;42.670;23.316;2024-02-16T11:49:29;95042.19;;;9.71;42.06
9774;BME280;4926;42.670;23.316;2024-02-16T11:51:55;95039.28;;;9.65;42.59
9774;BME280;4926;42.670;23.316;2024-02-16T11:54:21;95032.47;;;9.72;42.90
9774;BME280;4926;42.670;23.316;2024-02-16T11:56:48;95040.63;;;9.64;42.65
9774;BME280;4926;42.670;23.316;2024-02-16T11:59:17;95027.00;;;9.76;42.51
9774;BME280;4926;42.670;23.316;2024-02-16T12:01:55;95021.59;;;9.84;41.95
9774;BME280;4926;42.670;23.316;2024-02-16T12:04:31;95030.09;;;9.90;42.58
9774;BME280;4926;42.670;23.316;2024-02-16T12:06:58;95019.56;;;9.86;42.62
9774;BME280;4926;42.670;23.316;2024-02-16T12:09:25;95018.84;;;9.86;41.95
9774;BME280;4926;42.670;23.316;2024-02-16T12:11:52;95022.28;;;9.84;43.41
9774;BME280;4926;42.670;23.316;2024-02-16T12:14:18;95012.97;;;9.72;42.18
9774;BME280;4926;42.670;23.316;2024-02-16T12:16:51;95020.16;;;9.81;42.45
9774;BME280;4926;42.670;23.316;2024-02-16T12:19:23;95017.53;;;9.89;43.19
9774;BME280;4926;42.670;23.316;2024-02-16T12:21:55;95017.63;;;9.93;42.28
9774;BME280;4926;42.670;23.316;2024-02-16T12:24:24;95013.22;;;9.84;42.57
9774;BME280;4926;42.670;23.316;2024-02-16T12:26:50;95017.38;;;9.81;42.21
9774;BME280;4926;42.670;23.316;2024-02-16T12:29:16;95021.41;;;9.76;42.07
9774;BME280;4926;42.670;23.316;2024-02-16T12:31:45;95011.44;;;9.65;43.08
9774;BME280;4926;42.670;23.316;2024-02-16T12:34:13;95004.63;;;9.72;42.33
9774;BME280;4926;42.670;23.316;2024-02-16T12:36:39;95004.56;;;9.70;42.00
9774;BME280;4926;42.670;23.316;2024-02-16T12:39:06;95003.13;;;9.67;43.89
9774;BME280;4926;42.670;23.316;2024-02-16T12:41:34;94998.56;;;9.49;43.14
9774;BME280;4926;42.670;23.316;2024-02-16T12:44:04;94995.44;;;9.65;44.02
9774;BME280;4926;42.670;23.316;2024-02-16T12:46:31;95001.97;;;9.78;42.81
9774;BME280;4926;42.670;23.316;2024-02-16T12:48:57;94997.94;;;9.85;42.60
9774;BME280;4926;42.670;23.316;2024-02-16T12:51:27;94999.44;;;9.90;43.80
9774;BME280;4926;42.670;23.316;2024-02-16T12:53:52;94995.47;;;9.99;42.29
9774;BME280;4926;42.670;23.316;2024-02-16T12:56:21;94986.50;;;10.03;42.22
9774;BME280;4926;42.670;23.316;2024-02-16T12:58:46;94989.31;;;10.05;42.71
9774;BME280;4926;42.670;23.316;2024-02-16T13:01:12;94992.16;;;10.07;42.70
9774;BME280;4926;42.670;23.316;2024-02-16T13:03:38;94995.81;;;10.15;43.23
9774;BME280;4926;42.670;23.316;2024-02-16T13:06:04;94986.69;;;10.13;43.49
9774;BME280;4926;42.670;23.316;2024-02-16T13:08:31;94987.44;;;10.15;42.97
9774;BME280;4926;42.670;23.316;2024-02-16T13:10:57;94993.28;;;10.27;42.16
9774;BME280;4926;42.670;23.316;2024-02-16T13:13:23;94987.00;;;10.27;41.74
9774;BME280;4926;42.670;23.316;2024-02-16T13:15:49;94996.03;;;10.25;42.90
9774;BME280;4926;42.670;23.316;2024-02-16T13:18:15;94999.63;;;10.30;42.01